sensor_id;sensor_type;location;lat;lon;timestamp;pressure;altitude;pressure_sealevel;temperature;humidity
23899;BME280;20544;50.018;20.010;2022-08-30T00:01:49;99210.20;;;15.15;100.00
23899;BME280;20544;50.018;20.010;2022-08-30T00:05:06;99205.63;;;15.02;100.00
23899;BME280;20544;50.018;20.010;2022-08-30T00:08:23;99203.33;;;14.93;100.00
23899;BME280;20544;50.018;20.010;2022-08-30T00:11:40;99201.06;;;14.90;100.00
23899;BME280;20544;50.018;20.010;2022-08-30T00:14:57;99200.84;;;14.84;100.00
23899;BME280;20544;50.018;20.010;2022-08-30T00:18:16;99203.09;;;14.81;100.00
23899;BME280;20544;50.018;20.010;2022-08-30T00:21:33;99203.09;;;14.81;100.00
23899;BME280;20544;50.018;20.010;2022-08-30T00:24:49;99207.41;;;14.82;100.00
23899;BME280;20544;50.018;20.010;2022-08-30T00:28:08;99211.48;;;14.78;100.00
23899;BME280;20544;50.018;20.010;2022-08-30T00:31:24;99217.23;;;14.75;100.00
23899;BME280;20544;50.018;20.010;2022-08-30T00:34:43;99220.70;;;14.68;100.00
23899;BME280;20544;50.018;20.010;2022-08-30T00:37:59;99215.91;;;14.64;100.00
23899;BME280;20544;50.018;20.010;2022-08-30T00:41:15;99212.00;;;14.60;100.00
23899;BME280;20544;50.018;20.010;2022-08-30T00:44:31;99210.55;;;14.57;100.00
23899;BME280;20544;50.018;20.010;2022-08-30T00:47:48;99216.47;;;14.52;100.00
23899;BME280;20544;50.018;20.010;2022-08-30T00:51:07;99212.50;;;14.42;100.00
23899;BME280;20544;50.018;20.010;2022-08-30T00:54:26;99209.02;;;14.41;100.00
23899;BME280;20544;50.018;20.010;2022-08-30T00:57:44;99201.66;;;14.43;100.00
23899;BME280;20544;50.018;20.010;2022-08-30T01:01:02;99201.83;;;14.42;100.00
23899;BME280;20544;50.018;20.010;2022-08-30T01:04:21;99198.12;;;14.36;100.00
23899;BME280;20544;50.018;20.010;2022-08-30T01:07:40;99204.90;;;14.38;100.00
23899;BME280;20544;50.018;20.010;2022-08-30T01:10:57;99205.77;;;14.46;100.00
23899;BME280;20544;50.018;20.010;2022-08-30T01:14:15;99201.83;;;14.42;100.00
23899;BME280;20544;50.018;20.010;2022-08-30T01:17:34;99192.57;;;14.37;100.00
23899;BME280;20544;50.018;20.010;2022-08-30T01:20:54;99189.67;;;14.32;100.00
23899;BME280;20544;50.018;20.010;2022-08-30T01:24:15;99195.04;;;14.39;100.00
23899;BME280;20544;50.018;20.010;2022-08-30T01:27:37;99195.45;;;14.36;100.00
23899;BME280;20544;50.018;20.010;2022-08-30T01:30:56;99185.56;;;14.30;100.00
23899;BME280;20544;50.018;20.010;2022-08-30T01:34:13;99186.77;;;14.27;100.00
23899;BME280;20544;50.018;20.010;2022-08-30T01:37:32;99192.48;;;14.24;100.00
23899;BME280;20544;50.018;20.010;2022-08-30T01:40:49;99196.61;;;14.27;100.00
23899;BME280;20544;50.018;20.010;2022-08-30T01:44:09;99191.47;;;14.25;100.00
23899;BME280;20544;50.018;20.010;2022-08-30T01:47:25;99193.27;;;14.18;100.00
23899;BME280;20544;50.018;20.010;2022-08-30T01:50:44;99196.14;;;14.16;100.00
23899;BME280;20544;50.018;20.010;2022-08-30T01:54:01;99192.45;;;14.17;100.00
23899;BME280;20544;50.018;20.010;2022-08-30T01:57:20;99189.15;;;14.15;100.00
23899;BME280;20544;50.018;20.010;2022-08-30T02:00:37;99186.89;;;14.12;100.00
23899;BME280;20544;50.018;20.010;2022-08-30T02:03:55;99186.22;;;14.03;100.00
23899;BME280;20544;50.018;20.010;2022-08-30T02:07:12;99191.48;;;13.97;100.00
23899;BME280;20544;50.018;20.010;2022-08-30T02:10:29;99192.93;;;13.99;100.00
23899;BME280;20544;50.018;20.010;2022-08-30T02:13:46;99181.08;;;14.02;100.00
23899;BME280;20544;50.018;20.010;2022-08-30T02:17:05;99187.26;;;14.09;100.00
23899;BME280;20544;50.018;20.010;2022-08-30T02:20:24;99185.20;;;14.04;100.00
23899;BME280;20544;50.018;20.010;2022-08-30T02:23:41;99181.08;;;14.02;100.00
23899;BME280;20544;50.018;20.010;2022-08-30T02:26:57;99185.58;;;14.01;100.00
23899;BME280;20544;50.018;20.010;2022-08-30T02:30:17;99186.59;;;14.00;100.00
23899;BME280;20544;50.018;20.010;2022-08-30T02:33:33;99188.77;;;13.90;100.00
23899;BME280;20544;50.018;20.010;2022-08-30T02:36:50;99177.88;;;13.85;100.00
23899;BME280;20544;50.018;20.010;2022-08-30T02:40:08;99179.53;;;13.86;100.00
23899;BME280;20544;50.018;20.010;2022-08-30T02:43:26;99184.86;;;13.86;100.00
23899;BME280;20544;50.018;20.010;2022-08-30T02:46:42;99181.18;;;13.87;100.00
23899;BME280;20544;50.018;20.010;2022-08-30T02:49:59;99174.19;;;13.86;100.00
23899;BME280;20544;50.018;20.010;2022-08-30T02:53:18;99176.86;;;13.86;100.00
23899;BME280;20544;50.018;20.010;2022-08-30T02:56:35;99175.20;;;13.85;100.00
23899;BME280;20544;50.018;20.010;2022-08-30T02:59:51;99179.70;;;13.84;100.00
23899;BME280;20544;50.018;20.010;2022-08-30T03:03:08;99183.00;;;13.86;100.00
23899;BME280;20544;50.018;20.010;2022-08-30T03:06:27;99183.58;;;13.82;100.00
23899;BME280;20544;50.018;20.010;2022-08-30T03:09:43;99176.99;;;13.78;100.00
23899;BME280;20544;50.018;20.010;2022-08-30T03:13:00;99182.45;;;13.69;100.00
23899;BME280;20544;50.018;20.010;2022-08-30T03:16:17;99185.75;;;13.71;100.00
23899;BME280;20544;50.018;20.010;2022-08-30T03:19:34;99178.16;;;13.68;100.00
23899;BME280;20544;50.018;20.010;2022-08-30T03:22:51;99189.19;;;13.65;100.00
23899;BME280;20544;50.018;20.010;2022-08-30T03:26:09;99180.75;;;13.62;100.00
23899;BME280;20544;50.018;20.010;2022-08-30T03:29:27;99184.25;;;13.62;100.00
23899;BME280;20544;50.018;20.010;2022-08-30T03:32:43;99182.20;;;13.64;100.00
23899;BME280;20544;50.018;20.010;2022-08-30T03:40:02;99184.63;;;13.59;100.00
23899;BME280;20544;50.018;20.010;2022-08-30T03:43:20;99188.74;;;13.62;100.00
23899;BME280;20544;50.018;20.010;2022-08-30T03:46:36;99186.08;;;13.62;100.00
23899;BME280;20544;50.018;20.010;2022-08-30T03:49:53;99193.88;;;13.63;100.00
23899;BME280;20544;50.018;20.010;2022-08-30T03:53:10;99195.97;;;13.68;100.00
23899;BME280;20544;50.018;20.010;2022-08-30T03:56:27;99205.50;;;13.77;100.00
23899;BME280;20544;50.018;20.010;2022-08-30T03:59:43;99209.02;;;13.84;100.00
23899;BME280;20544;50.018;20.010;2022-08-30T04:02:59;99219.44;;;13.79;100.00
23899;BME280;20544;50.018;20.010;2022-08-30T04:06:16;99221.05;;;13.73;100.00
23899;BME280;20544;50.018;20.010;2022-08-30T04:09:32;99221.61;;;13.69;100.00
23899;BME280;20544;50.018;20.010;2022-08-30T04:12:50;99222.18;;;13.64;100.00
23899;BME280;20544;50.018;20.010;2022-08-30T04:16:07;99225.86;;;13.63;100.00
23899;BME280;20544;50.018;20.010;2022-08-30T04:19:23;99227.52;;;13.64;100.00
23899;BME280;20544;50.018;20.010;2022-08-30T04:22:40;99219.52;;;13.64;100.00
23899;BME280;20544;50.018;20.010;2022-08-30T04:25:56;99228.27;;;13.58;100.00
23899;BME280;20544;50.018;20.010;2022-08-30T04:29:13;99226.05;;;13.62;100.00
23899;BME280;20544;50.018;20.010;2022-08-30T04:32:29;99229.66;;;13.75;100.00
23899;BME280;20544;50.018;20.010;2022-08-30T04:35:48;99229.17;;;13.87;100.00
23899;BME280;20544;50.018;20.010;2022-08-30T04:39:05;99223.88;;;13.94;100.00
23899;BME280;20544;50.018;20.010;2022-08-30T04:42:21;99227.19;;;13.96;100.00
23899;BME280;20544;50.018;20.010;2022-08-30T04:45:41;99228.44;;;14.00;100.00
23899;BME280;20544;50.018;20.010;2022-08-30T04:48:58;99236.11;;;14.10;100.00
23899;BME280;20544;50.018;20.010;2022-08-30T04:52:15;99242.33;;;14.17;100.00
23899;BME280;20544;50.018;20.010;2022-08-30T04:55:31;99237.67;;;14.26;100.00
23899;BME280;20544;50.018;20.010;2022-08-30T04:58:49;99241.04;;;14.41;100.00
23899;BME280;20544;50.018;20.010;2022-08-30T05:02:06;99246.23;;;14.49;100.00
23899;BME280;20544;50.018;20.010;2022-08-30T05:05:23;99252.41;;;14.56;100.00
23899;BME280;20544;50.018;20.010;2022-08-30T05:08:54;99254.13;;;14.64;100.00
23899;BME280;20544;50.018;20.010;2022-08-30T05:12:11;99254.38;;;14.69;100.00
23899;BME280;20544;50.018;20.010;2022-08-30T05:15:27;99262.21;;;14.78;100.00
23899;BME280;20544;50.018;20.010;2022-08-30T05:18:44;99262.47;;;14.83;100.00
23899;BME280;20544;50.018;20.010;2022-08-30T05:22:04;99269.26;;;14.85;100.00
23899;BME280;20544;50.018;20.010;2022-08-30T05:25:23;99268.26;;;14.93;100.00
23899;BME280;20544;50.018;20.010;2022-08-30T05:28:41;99271.79;;;15.00;100.00
23899;BME280;20544;50.018;20.010;2022-08-30T05:31:59;99265.03;;;15.11;100.00
23899;BME280;20544;50.018;20.010;2022-08-30T05:35:17;99276.78;;;15.17;100.00
23899;BME280;20544;50.018;20.010;2022-08-30T05:38:34;99267.97;;;15.23;100.00
23899;BME280;20544;50.018;20.010;2022-08-30T05:41:54;99264.50;;;15.29;100.00
23899;BME280;20544;50.018;20.010;2022-08-30T05:45:11;99260.22;;;15.42;100.00
23899;BME280;20544;50.018;20.010;2022-08-30T05:48:29;99267.85;;;15.51;100.00
23899;BME280;20544;50.018;20.010;2022-08-30T05:51:45;99266.83;;;15.59;100.00
23899;BME280;20544;50.018;20.010;2022-08-30T05:55:03;99274.05;;;15.65;100.00
23899;BME280;20544;50.018;20.010;2022-08-30T05:58:21;99271.78;;;15.76;100.00
23899;BME280;20544;50.018;20.010;2022-08-30T06:01:38;99276.14;;;15.83;100.00
23899;BME280;20544;50.018;20.010;2022-08-30T06:04:55;99272.05;;;15.94;100.00
23899;BME280;20544;50.018;20.010;2022-08-30T06:08:13;99280.69;;;16.03;100.00
23899;BME280;20544;50.018;20.010;2022-08-30T06:11:29;99278.44;;;16.20;100.00
23899;BME280;20544;50.018;20.010;2022-08-30T06:14:46;99275.33;;;16.37;100.00
23899;BME280;20544;50.018;20.010;2022-08-30T06:18:03;99275.70;;;16.60;100.00
23899;BME280;20544;50.018;20.010;2022-08-30T06:21:21;99290.28;;;16.91;100.00
23899;BME280;20544;50.018;20.010;2022-08-30T06:24:39;99283.16;;;17.24;100.00
23899;BME280;20544;50.018;20.010;2022-08-30T06:27:57;99302.21;;;17.48;100.00
23899;BME280;20544;50.018;20.010;2022-08-30T06:31:15;99295.78;;;17.87;100.00
23899;BME280;20544;50.018;20.010;2022-08-30T06:34:32;99292.88;;;18.21;100.00
23899;BME280;20544;50.018;20.010;2022-08-30T06:37:49;99300.80;;;18.59;100.00
23899;BME280;20544;50.018;20.010;2022-08-30T06:41:10;99310.67;;;18.84;100.00
23899;BME280;20544;50.018;20.010;2022-08-30T06:44:26;99309.95;;;19.14;100.00
23899;BME280;20544;50.018;20.010;2022-08-30T06:47:43;99309.36;;;19.43;100.00
23899;BME280;20544;50.018;20.010;2022-08-30T06:51:00;99319.10;;;19.74;100.00
23899;BME280;20544;50.018;20.010;2022-08-30T06:54:16;99310.61;;;19.59;98.03
23899;BME280;20544;50.018;20.010;2022-08-30T06:57:32;99327.11;;;19.62;100.00
23899;BME280;20544;50.018;20.010;2022-08-30T07:00:50;99323.11;;;19.53;100.00
23899;BME280;20544;50.018;20.010;2022-08-30T07:04:06;99319.45;;;19.47;100.00
23899;BME280;20544;50.018;20.010;2022-08-30T07:07:24;99307.75;;;19.42;100.00
23899;BME280;20544;50.018;20.010;2022-08-30T07:10:41;99323.31;;;19.51;100.00
23899;BME280;20544;50.018;20.010;2022-08-30T07:13:57;99317.50;;;19.54;100.00
23899;BME280;20544;50.018;20.010;2022-08-30T07:17:14;99322.47;;;19.69;98.19
23899;BME280;20544;50.018;20.010;2022-08-30T07:20:44;99313.38;;;20.13;100.00
23899;BME280;20544;50.018;20.010;2022-08-30T07:24:01;99314.80;;;20.39;100.00
23899;BME280;20544;50.018;20.010;2022-08-30T07:27:18;99330.14;;;20.50;96.57
23899;BME280;20544;50.018;20.010;2022-08-30T07:30:34;99330.84;;;20.46;95.45
23899;BME280;20544;50.018;20.010;2022-08-30T07:33:51;99319.48;;;20.56;97.43
23899;BME280;20544;50.018;20.010;2022-08-30T07:37:08;99321.38;;;20.55;97.09
23899;BME280;20544;50.018;20.010;2022-08-30T07:40:26;99320.08;;;20.58;97.11
23899;BME280;20544;50.018;20.010;2022-08-30T07:43:42;99319.01;;;20.71;99.31
23899;BME280;20544;50.018;20.010;2022-08-30T07:46:58;99324.08;;;20.79;100.00
23899;BME280;20544;50.018;20.010;2022-08-30T07:50:15;99317.64;;;20.80;98.92
23899;BME280;20544;50.018;20.010;2022-08-30T07:53:31;99320.90;;;20.94;100.00
23899;BME280;20544;50.018;20.010;2022-08-30T07:56:47;99322.50;;;21.07;98.84
23899;BME280;20544;50.018;20.010;2022-08-30T08:00:06;99321.91;;;21.05;97.67
23899;BME280;20544;50.018;20.010;2022-08-30T08:03:23;99322.61;;;21.12;99.42
23899;BME280;20544;50.018;20.010;2022-08-30T08:06:40;99326.34;;;21.23;99.88
23899;BME280;20544;50.018;20.010;2022-08-30T08:09:57;99326.93;;;21.25;98.09
23899;BME280;20544;50.018;20.010;2022-08-30T08:13:14;99333.55;;;21.46;93.01
23899;BME280;20544;50.018;20.010;2022-08-30T08:16:34;99333.77;;;21.44;95.92
23899;BME280;20544;50.018;20.010;2022-08-30T08:19:52;99328.73;;;21.77;95.77
23899;BME280;20544;50.018;20.010;2022-08-30T08:23:09;99337.54;;;22.01;92.45
23899;BME280;20544;50.018;20.010;2022-08-30T08:26:25;99336.98;;;22.16;89.09
23899;BME280;20544;50.018;20.010;2022-08-30T08:30:12;99344.36;;;22.21;88.41
23899;BME280;20544;50.018;20.010;2022-08-30T08:38:25;99344.26;;;22.67;88.04
23899;BME280;20544;50.018;20.010;2022-08-30T09:26:11;99350.14;;;24.99;78.32
23899;BME280;20544;50.018;20.010;2022-08-30T09:29:53;99335.42;;;25.43;78.77
23899;BME280;20544;50.018;20.010;2022-08-30T09:33:20;99343.31;;;25.45;75.05
23899;BME280;20544;50.018;20.010;2022-08-30T09:36:40;99328.92;;;25.49;75.18
23899;BME280;20544;50.018;20.010;2022-08-30T09:39:59;99334.47;;;25.12;71.75
23899;BME280;20544;50.018;20.010;2022-08-30T09:43:36;99340.30;;;24.83;74.59
23899;BME280;20544;50.018;20.010;2022-08-30T09:47:35;99339.00;;;24.53;75.36
23899;BME280;20544;50.018;20.010;2022-08-30T09:55:44;99331.78;;;23.99;80.22
23899;BME280;20544;50.018;20.010;2022-08-30T09:59:11;99332.87;;;23.70;83.32
23899;BME280;20544;50.018;20.010;2022-08-30T10:02:55;99331.00;;;23.49;83.16
23899;BME280;20544;50.018;20.010;2022-08-30T10:06:24;99314.86;;;23.32;89.54
23899;BME280;20544;50.018;20.010;2022-08-30T10:09:46;99318.95;;;23.34;86.22
23899;BME280;20544;50.018;20.010;2022-08-30T10:13:15;99318.85;;;23.79;93.43
23899;BME280;20544;50.018;20.010;2022-08-30T10:17:36;99313.27;;;24.18;81.07
23899;BME280;20544;50.018;20.010;2022-08-30T10:21:25;99312.13;;;24.46;79.66
23899;BME280;20544;50.018;20.010;2022-08-30T10:34:15;99306.84;;;25.25;79.99
23899;BME280;20544;50.018;20.010;2022-08-30T10:38:05;99307.42;;;25.32;76.46
23899;BME280;20544;50.018;20.010;2022-08-30T10:41:52;99301.53;;;25.51;73.58
23899;BME280;20544;50.018;20.010;2022-08-30T10:58:02;99289.69;;;25.09;69.29
23899;BME280;20544;50.018;20.010;2022-08-30T11:01:33;99284.11;;;24.73;72.04
23899;BME280;20544;50.018;20.010;2022-08-30T11:11:03;99271.72;;;24.87;72.57
23899;BME280;20544;50.018;20.010;2022-08-30T11:17:29;99281.70;;;24.82;69.33
23899;BME280;20544;50.018;20.010;2022-08-30T11:24:02;99274.63;;;24.33;77.33
23899;BME280;20544;50.018;20.010;2022-08-30T11:27:44;99276.92;;;24.14;83.43
23899;BME280;20544;50.018;20.010;2022-08-30T11:37:37;99271.55;;;23.86;80.61
23899;BME280;20544;50.018;20.010;2022-08-30T11:51:11;99262.89;;;23.57;74.91
23899;BME280;20544;50.018;20.010;2022-08-30T11:55:07;99251.38;;;23.72;82.70
23899;BME280;20544;50.018;20.010;2022-08-30T12:10:53;99243.68;;;23.31;85.70
23899;BME280;20544;50.018;20.010;2022-08-30T12:19:16;99233.12;;;23.30;80.35
23899;BME280;20544;50.018;20.010;2022-08-30T12:26:40;99223.94;;;23.31;75.95
23899;BME280;20544;50.018;20.010;2022-08-30T12:30:05;99222.25;;;23.24;75.31
23899;BME280;20544;50.018;20.010;2022-08-30T12:33:31;99220.30;;;23.20;83.13
23899;BME280;20544;50.018;20.010;2022-08-30T13:24:41;99169.08;;;22.64;90.61
23899;BME280;20544;50.018;20.010;2022-08-30T13:28:06;99166.64;;;22.62;88.41
23899;BME280;20544;50.018;20.010;2022-08-30T13:31:27;99157.95;;;22.60;88.88
23899;BME280;20544;50.018;20.010;2022-08-30T13:57:03;99152.55;;;22.60;95.25
23899;BME280;20544;50.018;20.010;2022-08-30T14:00:24;99153.24;;;22.50;85.13
23899;BME280;20544;50.018;20.010;2022-08-30T14:03:50;99152.44;;;22.50;78.79
23899;BME280;20544;50.018;20.010;2022-08-30T14:07:15;99148.67;;;22.51;77.08
23899;BME280;20544;50.018;20.010;2022-08-30T14:10:34;99155.14;;;22.50;75.94
23899;BME280;20544;50.018;20.010;2022-08-30T14:13:59;99149.67;;;22.44;75.57
23899;BME280;20544;50.018;20.010;2022-08-30T14:17:20;99139.35;;;22.41;74.29
23899;BME280;20544;50.018;20.010;2022-08-30T14:20:44;99144.76;;;22.41;77.94
23899;BME280;20544;50.018;20.010;2022-08-30T14:24:00;99141.97;;;22.36;80.77
23899;BME280;20544;50.018;20.010;2022-08-30T14:27:18;99136.56;;;22.36;88.97
23899;BME280;20544;50.018;20.010;2022-08-30T14:30:37;99127.50;;;22.25;95.21
23899;BME280;20544;50.018;20.010;2022-08-30T14:37:59;99121.72;;;22.17;90.08
23899;BME280;20544;50.018;20.010;2022-08-30T14:41:21;99117.57;;;22.09;83.42
23899;BME280;20544;50.018;20.010;2022-08-30T14:44:46;99129.50;;;22.13;89.75
23899;BME280;20544;50.018;20.010;2022-08-30T14:48:04;99124.41;;;22.17;85.28
23899;BME280;20544;50.018;20.010;2022-08-30T14:51:23;99129.34;;;22.20;79.32
23899;BME280;20544;50.018;20.010;2022-08-30T14:54:43;99123.19;;;22.24;78.85
23899;BME280;20544;50.018;20.010;2022-08-30T14:58:32;99118.91;;;22.28;76.96
23899;BME280;20544;50.018;20.010;2022-08-30T15:02:29;99123.57;;;22.33;74.97
23899;BME280;20544;50.018;20.010;2022-08-30T15:05:52;99123.66;;;22.38;74.57
23899;BME280;20544;50.018;20.010;2022-08-30T15:09:11;99116.94;;;22.41;74.37
23899;BME280;20544;50.018;20.010;2022-08-30T15:12:36;99119.64;;;22.41;74.87
23899;BME280;20544;50.018;20.010;2022-08-30T15:15:56;99121.27;;;22.42;76.49
23899;BME280;20544;50.018;20.010;2022-08-30T15:19:17;99121.02;;;22.43;74.95
23899;BME280;20544;50.018;20.010;2022-08-30T15:22:41;99114.55;;;22.44;74.83
23899;BME280;20544;50.018;20.010;2022-08-30T15:26:38;99120.50;;;22.46;76.01
23899;BME280;20544;50.018;20.010;2022-08-30T15:30:42;99119.38;;;22.42;73.25
23899;BME280;20544;50.018;20.010;2022-08-30T15:34:21;99112.08;;;22.43;74.14
23899;BME280;20544;50.018;20.010;2022-08-30T15:37:38;99114.55;;;22.44;74.02
23899;BME280;20544;50.018;20.010;2022-08-30T15:41:04;99117.25;;;22.44;75.45
23899;BME280;20544;50.018;20.010;2022-08-30T15:44:30;99116.09;;;22.40;74.75
23899;BME280;20544;50.018;20.010;2022-08-30T15:47:47;99113.66;;;22.39;75.98
23899;BME280;20544;50.018;20.010;2022-08-30T15:51:05;99114.95;;;22.36;83.96
23899;BME280;20544;50.018;20.010;2022-08-30T15:54:23;99109.97;;;22.28;90.39
23899;BME280;20544;50.018;20.010;2022-08-30T15:57:40;99108.79;;;22.19;97.40
23899;BME280;20544;50.018;20.010;2022-08-30T16:00:56;99110.53;;;22.08;98.04
23899;BME280;20544;50.018;20.010;2022-08-30T16:04:13;99098.80;;;21.97;100.00
23899;BME280;20544;50.018;20.010;2022-08-30T16:07:36;99096.99;;;21.86;100.00
23899;BME280;20544;50.018;20.010;2022-08-30T16:11:08;99086.97;;;21.81;97.62
23899;BME280;20544;50.018;20.010;2022-08-30T16:14:27;99090.72;;;21.80;100.00
23899;BME280;20544;50.018;20.010;2022-08-30T16:17:44;99089.92;;;21.79;90.00
23899;BME280;20544;50.018;20.010;2022-08-30T16:21:06;99084.59;;;21.85;94.47
23899;BME280;20544;50.018;20.010;2022-08-30T16:24:25;99090.53;;;21.87;84.87
23899;BME280;20544;50.018;20.010;2022-08-30T16:27:41;99087.90;;;21.92;89.04
23899;BME280;20544;50.018;20.010;2022-08-30T16:30:58;99094.45;;;21.96;88.69
23899;BME280;20544;50.018;20.010;2022-08-30T16:34:17;99092.30;;;21.98;93.41
23899;BME280;20544;50.018;20.010;2022-08-30T16:37:34;99095.77;;;21.93;90.43
23899;BME280;20544;50.018;20.010;2022-08-30T16:40:51;99089.22;;;21.89;88.45
23899;BME280;20544;50.018;20.010;2022-08-30T16:44:08;99098.89;;;21.85;85.34
23899;BME280;20544;50.018;20.010;2022-08-30T16:47:26;99089.92;;;21.79;86.83
23899;BME280;20544;50.018;20.010;2022-08-30T16:50:44;99087.44;;;21.78;90.84
23899;BME280;20544;50.018;20.010;2022-08-30T16:54:03;99090.08;;;21.73;96.55
23899;BME280;20544;50.018;20.010;2022-08-30T16:57:21;99092.30;;;21.59;94.02
23899;BME280;20544;50.018;20.010;2022-08-30T17:00:39;99095.63;;;21.49;96.04
23899;BME280;20544;50.018;20.010;2022-08-30T17:03:55;99095.80;;;21.42;98.59
23899;BME280;20544;50.018;20.010;2022-08-30T17:07:12;99097.77;;;21.30;100.00
23899;BME280;20544;50.018;20.010;2022-08-30T17:10:30;99103.47;;;21.16;100.00
23899;BME280;20544;50.018;20.010;2022-08-30T17:13:47;99106.55;;;21.08;99.69
23899;BME280;20544;50.018;20.010;2022-08-30T17:17:07;99105.08;;;21.00;100.00
23899;BME280;20544;50.018;20.010;2022-08-30T17:20:25;99108.56;;;20.84;100.00
23899;BME280;20544;50.018;20.010;2022-08-30T17:23:45;99111.64;;;20.76;100.00
23899;BME280;20544;50.018;20.010;2022-08-30T17:27:04;99117.40;;;20.67;100.00
23899;BME280;20544;50.018;20.010;2022-08-30T17:30:21;99126.09;;;20.58;100.00
23899;BME280;20544;50.018;20.010;2022-08-30T17:33:37;99129.16;;;20.49;100.00
23899;BME280;20544;50.018;20.010;2022-08-30T17:36:54;99137.63;;;20.41;100.00
23899;BME280;20544;50.018;20.010;2022-08-30T17:40:12;99133.29;;;20.40;100.00
23899;BME280;20544;50.018;20.010;2022-08-30T17:43:28;99133.41;;;20.33;100.00
23899;BME280;20544;50.018;20.010;2022-08-30T17:46:45;99133.05;;;20.30;100.00
23899;BME280;20544;50.018;20.010;2022-08-30T17:50:02;99150.41;;;20.22;100.00
23899;BME280;20544;50.018;20.010;2022-08-30T17:53:20;99146.20;;;20.14;100.00
23899;BME280;20544;50.018;20.010;2022-08-30T17:56:36;99157.56;;;20.04;100.00
23899;BME280;20544;50.018;20.010;2022-08-30T17:59:53;99159.79;;;19.96;100.00
23899;BME280;20544;50.018;20.010;2022-08-30T18:03:11;99170.44;;;19.91;100.00
23899;BME280;20544;50.018;20.010;2022-08-30T18:06:29;99162.37;;;19.91;100.00
23899;BME280;20544;50.018;20.010;2022-08-30T18:09:47;99174.18;;;19.90;100.00
23899;BME280;20544;50.018;20.010;2022-08-30T18:13:03;99176.52;;;19.86;100.00
23899;BME280;20544;50.018;20.010;2022-08-30T18:16:20;99180.94;;;19.80;100.00
23899;BME280;20544;50.018;20.010;2022-08-30T18:19:39;99181.16;;;19.79;100.00
23899;BME280;20544;50.018;20.010;2022-08-30T18:22:55;99185.13;;;19.76;100.00
23899;BME280;20544;50.018;20.010;2022-08-30T18:26:15;99194.13;;;19.70;100.00
23899;BME280;20544;50.018;20.010;2022-08-30T18:29:32;99192.16;;;19.65;100.00
23899;BME280;20544;50.018;20.010;2022-08-30T18:32:50;99193.89;;;19.60;100.00
23899;BME280;20544;50.018;20.010;2022-08-30T18:36:07;99194.20;;;19.51;100.00
23899;BME280;20544;50.018;20.010;2022-08-30T18:39:27;99195.48;;;19.37;100.00
23899;BME280;20544;50.018;20.010;2022-08-30T18:42:43;99196.39;;;19.31;100.00
23899;BME280;20544;50.018;20.010;2022-08-30T18:46:02;99203.28;;;19.27;100.00
23899;BME280;20544;50.018;20.010;2022-08-30T18:49:24;99206.28;;;19.18;100.00
23899;BME280;20544;50.018;20.010;2022-08-30T18:52:41;99214.66;;;19.10;100.00
23899;BME280;20544;50.018;20.010;2022-08-30T18:55:58;99207.36;;;18.99;100.00
23899;BME280;20544;50.018;20.010;2022-08-30T18:59:15;99213.88;;;18.91;100.00
23899;BME280;20544;50.018;20.010;2022-08-30T19:02:33;99209.84;;;18.82;100.00
23899;BME280;20544;50.018;20.010;2022-08-30T19:05:51;99209.33;;;18.73;100.00
23899;BME280;20544;50.018;20.010;2022-08-30T19:09:07;99204.98;;;18.72;100.00
23899;BME280;20544;50.018;20.010;2022-08-30T19:12:25;99202.97;;;18.67;100.00
23899;BME280;20544;50.018;20.010;2022-08-30T19:15:42;99208.20;;;18.62;100.00
23899;BME280;20544;50.018;20.010;2022-08-30T19:18:58;99207.45;;;18.55;100.00
23899;BME280;20544;50.018;20.010;2022-08-30T19:22:17;99197.37;;;18.50;100.00
23899;BME280;20544;50.018;20.010;2022-08-30T19:25:37;99204.61;;;18.50;100.00
23899;BME280;20544;50.018;20.010;2022-08-30T19:28:56;99209.84;;;18.45;100.00
23899;BME280;20544;50.018;20.010;2022-08-30T19:32:13;99208.80;;;18.46;100.00
23899;BME280;20544;50.018;20.010;2022-08-30T19:35:31;99205.66;;;18.49;100.00
23899;BME280;20544;50.018;20.010;2022-08-30T19:38:47;99200.14;;;18.43;100.00
23899;BME280;20544;50.018;20.010;2022-08-30T19:42:04;99210.27;;;18.41;100.00
23899;BME280;20544;50.018;20.010;2022-08-30T19:45:23;99210.96;;;18.37;100.00
23899;BME280;20544;50.018;20.010;2022-08-30T19:48:41;99215.64;;;18.41;100.00
23899;BME280;20544;50.018;20.010;2022-08-30T19:52:00;99217.75;;;18.39;100.00
23899;BME280;20544;50.018;20.010;2022-08-30T19:55:18;99215.95;;;18.33;100.00
23899;BME280;20544;50.018;20.010;2022-08-30T19:58:38;99215.11;;;18.33;100.00
23899;BME280;20544;50.018;20.010;2022-08-30T20:01:54;99203.80;;;18.31;100.00
23899;BME280;20544;50.018;20.010;2022-08-30T20:05:13;99215.20;;;18.45;100.00
23899;BME280;20544;50.018;20.010;2022-08-30T20:08:31;99209.33;;;18.54;100.00
23899;BME280;20544;50.018;20.010;2022-08-30T20:11:47;99208.11;;;18.50;100.00
23899;BME280;20544;50.018;20.010;2022-08-30T20:15:08;99214.83;;;18.41;100.00
23899;BME280;20544;50.018;20.010;2022-08-30T20:18:26;99210.20;;;18.30;100.00
23899;BME280;20544;50.018;20.010;2022-08-30T20:21:44;99209.13;;;18.12;100.00
23899;BME280;20544;50.018;20.010;2022-08-30T20:25:00;99206.79;;;17.97;100.00
23899;BME280;20544;50.018;20.010;2022-08-30T20:28:18;99197.94;;;17.90;100.00
23899;BME280;20544;50.018;20.010;2022-08-30T20:31:37;99198.43;;;17.80;100.00
23899;BME280;20544;50.018;20.010;2022-08-30T20:34:57;99199.37;;;17.67;100.00
23899;BME280;20544;50.018;20.010;2022-08-30T20:38:14;99197.75;;;17.59;100.00
23899;BME280;20544;50.018;20.010;2022-08-30T20:42:01;99207.67;;;17.59;100.00